Time;durP1;ratioP1;P1;durP2;ratioP2;P2;SDS_P1;SDS_P2;PMS_P1;PMS_P2;Temp;Humidity;BMP_temperature;BMP_pressure;BME280_temperature;BME280_humidity;BME280_pressure;Samples;Min_cycle;Max_cycle;Signal;HPM_P1;HPM_P2
2023/08/08 00:00:40;;;;;;;7.13;1.60;;;;;;;;;;5065266;28;20840;-45
2023/08/08 00:03:08;;;;;;;7.45;1.80;;;;;;;;;;5044819;28;20029;-45
2023/08/08 00:05:33;;;;;;;6.28;2.38;;;;;;;;;;5060006;28;20024;-45
2023/08/08 00:07:59;;;;;;;4.43;1.42;;;;;;;;;;5067446;28;20024;-45
2023/08/08 00:10:24;;;;;;;10.00;1.63;;;;;;;;;;5067057;28;20044;-45
2023/08/08 00:12:50;;;;;;;7.07;1.63;;;;;;;;;;5070585;28;20838;-45
2023/08/08 00:15:15;;;;;;;5.32;1.20;;;;;;;;;;5057462;28;20044;-45
2023/08/08 00:17:40;;;;;;;6.53;1.75;;;;;;;;;;5071055;28;20080;-45
2023/08/08 00:20:07;;;;;;;5.68;1.63;;;;;;;;;;5068977;28;20024;-45
2023/08/08 00:22:32;;;;;;;6.57;1.90;;;;;;;;;;5065460;28;20475;-45
2023/08/08 00:24:57;;;;;;;8.15;1.70;;;;;;;;;;5058636;28;20070;-45
2023/08/08 00:27:23;;;;;;;10.45;1.88;;;;;;;;;;5062801;28;20054;-45
2023/08/08 00:29:48;;;;;;;7.72;1.75;;;;;;;;;;5062548;28;20070;-45
2023/08/08 00:32:13;;;;;;;6.55;1.92;;;;;;;;;;5060571;28;20048;-45
2023/08/08 00:34:39;;;;;;;8.77;1.60;;;;;;;;;;5064078;28;20028;-45
2023/08/08 00:37:04;;;;;;;4.60;1.50;;;;;;;;;;5065578;28;20055;-45
2023/08/08 00:39:29;;;;;;;7.50;1.77;;;;;;;;;;5064144;28;20271;-45
2023/08/08 00:41:54;;;;;;;6.60;1.63;;;;;;;;;;5061034;28;20370;-45
2023/08/08 00:44:20;;;;;;;8.43;2.07;;;;;;;;;;5060635;28;20279;-45
2023/08/08 00:46:45;;;;;;;4.23;1.10;;;;;;;;;;5061933;28;20057;-45
2023/08/08 00:49:10;;;;;;;5.30;1.70;;;;;;;;;;5057965;28;20283;-45
2023/08/08 00:51:36;;;;;;;12.70;2.70;;;;;;;;;;5057526;28;20275;-45
2023/08/08 00:54:02;;;;;;;5.60;1.23;;;;;;;;;;5058588;28;20415;-45
2023/08/08 00:56:27;;;;;;;8.65;1.33;;;;;;;;;;5064860;28;20040;-45
2023/08/08 00:58:52;;;;;;;7.93;1.67;;;;;;;;;;5064859;28;20021;-45
2023/08/08 01:01:18;;;;;;;4.90;1.85;;;;;;;;;;5061453;28;20776;-45
2023/08/08 01:03:43;;;;;;;5.03;1.65;;;;;;;;;;5052547;28;20060;-46
2023/08/08 01:06:13;;;;;;;6.70;1.48;;;;;;;;;;5052000;28;20493;-45
2023/08/08 01:09:05;;;;;;;41.88;5.20;;;;;;;;;;5066189;28;20399;-45
2023/08/08 01:11:32;;;;;;;5.30;1.38;;;;;;;;;;5061648;28;20071;-45
2023/08/08 01:13:58;;;;;;;6.18;1.35;;;;;;;;;;5063280;28;20033;-45
2023/08/08 01:16:23;;;;;;;7.40;1.30;;;;;;;;;;5066979;28;20020;-45
2023/08/08 01:18:50;;;;;;;8.05;1.75;;;;;;;;;;5063382;28;20020;-45
2023/08/08 01:21:16;;;;;;;2.63;1.30;;;;;;;;;;5055244;28;20435;-45
2023/08/08 01:23:43;;;;;;;5.10;1.48;;;;;;;;;;5052469;28;20490;-45
2023/08/08 01:26:08;;;;;;;22.50;5.38;;;;;;;;;;5050008;28;20037;-45
2023/08/08 01:28:34;;;;;;;7.00;1.37;;;;;;;;;;5049146;28;20044;-45
2023/08/08 01:31:00;;;;;;;7.82;1.70;;;;;;;;;;5059429;28;20647;-45
2023/08/08 01:33:25;;;;;;;6.40;2.17;;;;;;;;;;5051879;28;20020;-45
2023/08/08 01:35:53;;;;;;;3.60;1.42;;;;;;;;;;5062590;28;20285;-45
2023/08/08 01:38:26;;;;;;;5.35;1.52;;;;;;;;;;5049517;28;20064;-46
2023/08/08 01:40:52;;;;;;;10.25;2.83;;;;;;;;;;5061885;28;20024;-45
2023/08/08 01:43:18;;;;;;;3.30;1.05;;;;;;;;;;5060341;28;20032;-45
2023/08/08 01:45:43;;;;;;;5.35;1.50;;;;;;;;;;5058705;28;20028;-45
2023/08/08 01:48:09;;;;;;;5.45;1.38;;;;;;;;;;5061744;28;20067;-45
2023/08/08 01:50:35;;;;;;;11.80;1.45;;;;;;;;;;5051312;28;20079;-45
2023/08/08 01:53:00;;;;;;;5.00;1.27;;;;;;;;;;5059064;28;20020;-45
2023/08/08 01:55:26;;;;;;;7.93;1.23;;;;;;;;;;5049906;28;20051;-45
2023/08/08 01:57:51;;;;;;;3.28;0.85;;;;;;;;;;5059372;28;20066;-45
2023/08/08 02:00:17;;;;;;;6.23;1.83;;;;;;;;;;5040443;28;20032;-45
2023/08/08 02:02:42;;;;;;;4.97;1.35;;;;;;;;;;5062266;28;21355;-45
2023/08/08 02:05:07;;;;;;;5.50;1.17;;;;;;;;;;5055507;28;20029;-45
2023/08/08 02:07:33;;;;;;;6.50;1.50;;;;;;;;;;5058175;28;20406;-45
2023/08/08 02:09:58;;;;;;;9.97;1.20;;;;;;;;;;5051805;28;20363;-45
2023/08/08 02:12:23;;;;;;;4.97;1.17;;;;;;;;;;5061988;28;20289;-45
2023/08/08 02:14:48;;;;;;;4.27;1.33;;;;;;;;;;5059341;28;20406;-46
2023/08/08 02:17:14;;;;;;;4.10;1.30;;;;;;;;;;5060441;28;20044;-45
2023/08/08 02:19:39;;;;;;;3.17;1.10;;;;;;;;;;5060313;28;20316;-45
2023/08/08 02:22:04;;;;;;;14.60;4.00;;;;;;;;;;5049083;28;20024;-45
2023/08/08 02:24:29;;;;;;;5.63;1.23;;;;;;;;;;5046375;28;20749;-45
2023/08/08 02:26:55;;;;;;;3.93;1.30;;;;;;;;;;5043864;28;20340;-45
2023/08/08 02:29:20;;;;;;;6.05;1.30;;;;;;;;;;5064040;28;20036;-45
2023/08/08 02:31:45;;;;;;;8.43;1.80;;;;;;;;;;5056825;28;20119;-45
2023/08/08 02:34:11;;;;;;;5.28;1.58;;;;;;;;;;5053240;28;20773;-45
2023/08/08 02:36:36;;;;;;;4.00;1.40;;;;;;;;;;5060703;28;20160;-45
2023/08/08 02:39:01;;;;;;;4.57;1.23;;;;;;;;;;5056965;28;20286;-45
2023/08/08 02:41:26;;;;;;;7.35;1.33;;;;;;;;;;5064793;28;20637;-45
2023/08/08 02:43:52;;;;;;;11.80;1.80;;;;;;;;;;5056661;28;20056;-45
2023/08/08 02:46:17;;;;;;;7.20;1.80;;;;;;;;;;5068539;28;20279;-45
2023/08/08 02:48:42;;;;;;;7.77;1.93;;;;;;;;;;5061997;28;20286;-45
2023/08/08 02:51:07;;;;;;;3.38;1.10;;;;;;;;;;5054528;28;20286;-45
2023/08/08 02:53:33;;;;;;;7.90;1.30;;;;;;;;;;5058721;28;20023;-45
2023/08/08 02:55:58;;;;;;;8.00;1.70;;;;;;;;;;5060402;28;20270;-45
2023/08/08 02:58:23;;;;;;;2.13;1.00;;;;;;;;;;5058139;28;20282;-45
2023/08/08 03:00:48;;;;;;;3.40;1.47;;;;;;;;;;5053064;28;20324;-45
2023/08/08 03:03:14;;;;;;;3.67;1.50;;;;;;;;;;5064500;28;20279;-45
2023/08/08 03:05:39;;;;;;;4.97;1.27;;;;;;;;;;5057126;28;20266;-45
2023/08/08 03:08:05;;;;;;;5.38;1.48;;;;;;;;;;5066222;28;20017;-45
2023/08/08 03:10:30;;;;;;;6.53;1.23;;;;;;;;;;5065916;28;20036;-45
2023/08/08 03:12:55;;;;;;;6.40;1.20;;;;;;;;;;5064141;28;20044;-45
2023/08/08 03:15:20;;;;;;;3.17;1.40;;;;;;;;;;5064102;28;20278;-45
2023/08/08 03:17:46;;;;;;;3.38;1.25;;;;;;;;;;5061815;28;20356;-45
2023/08/08 03:20:11;;;;;;;5.10;1.37;;;;;;;;;;5064945;28;20021;-45
2023/08/08 03:22:37;;;;;;;3.35;1.13;;;;;;;;;;5056821;28;20308;-45
2023/08/08 03:25:04;;;;;;;2.72;1.10;;;;;;;;;;5058449;28;20025;-45
2023/08/08 03:27:29;;;;;;;3.42;1.25;;;;;;;;;;5056692;28;20037;-45
2023/08/08 03:29:54;;;;;;;4.10;1.33;;;;;;;;;;5059387;28;20032;-45
2023/08/08 03:32:19;;;;;;;3.53;1.00;;;;;;;;;;5063567;28;20055;-45
2023/08/08 03:34:45;;;;;;;8.47;1.30;;;;;;;;;;5061227;28;20354;-45
2023/08/08 03:37:10;;;;;;;1.83;0.93;;;;;;;;;;5067021;28;20286;-45
2023/08/08 03:39:35;;;;;;;4.23;1.10;;;;;;;;;;5067120;28;20749;-45
2023/08/08 03:42:00;;;;;;;2.33;1.20;;;;;;;;;;5052160;28;20366;-45
2023/08/08 03:44:26;;;;;;;4.67;0.80;;;;;;;;;;5041598;28;20271;-45
2023/08/08 03:46:51;;;;;;;2.30;1.73;;;;;;;;;;5061610;28;20343;-45
2023/08/08 03:49:16;;;;;;;4.77;1.40;;;;;;;;;;5063244;28;20302;-45
2023/08/08 03:51:42;;;;;;;5.93;1.58;;;;;;;;;;5060213;28;21268;-45
2023/08/08 03:54:07;;;;;;;10.23;1.30;;;;;;;;;;5058570;28;20043;-45
2023/08/08 03:56:32;;;;;;;3.40;1.57;;;;;;;;;;5059079;28;20101;-45
2023/08/08 03:58:58;;;;;;;6.18;2.47;;;;;;;;;;5047990;28;20303;-45
2023/08/08 04:01:23;;;;;;;3.45;1.05;;;;;;;;;;5059379;28;20031;-46
2023/08/08 04:03:48;;;;;;;5.77;1.43;;;;;;;;;;5063325;28;20575;-45
2023/08/08 04:06:13;;;;;;;6.33;1.40;;;;;;;;;;5060316;28;20292;-46
2023/08/08 04:08:39;;;;;;;5.90;1.10;;;;;;;;;;5055982;28;21697;-45
2023/08/08 04:11:04;;;;;;;5.28;1.38;;;;;;;;;;5063112;28;20282;-45
2023/08/08 04:13:29;;;;;;;4.63;1.40;;;;;;;;;;5062311;28;20028;-45
2023/08/08 04:15:55;;;;;;;4.57;1.67;;;;;;;;;;5054918;28;20353;-45
2023/08/08 04:18:20;;;;;;;7.03;1.55;;;;;;;;;;5058889;28;20033;-45
2023/08/08 04:20:46;;;;;;;2.75;1.48;;;;;;;;;;5062280;28;20479;-45
2023/08/08 04:23:12;;;;;;;5.75;1.10;;;;;;;;;;5067545;28;20660;-45
2023/08/08 04:25:37;;;;;;;2.50;0.88;;;;;;;;;;5065600;28;20013;-45
2023/08/08 04:28:03;;;;;;;3.58;1.25;;;;;;;;;;5058306;28;20844;-45
2023/08/08 04:30:28;;;;;;;2.95;0.98;;;;;;;;;;5059809;28;20425;-45
2023/08/08 04:32:54;;;;;;;5.70;1.67;;;;;;;;;;5063399;28;20033;-45
2023/08/08 04:35:19;;;;;;;4.27;1.37;;;;;;;;;;5064128;28;20028;-45
2023/08/08 04:37:44;;;;;;;4.77;1.63;;;;;;;;;;5067223;28;21478;-45
2023/08/08 04:40:09;;;;;;;3.30;1.53;;;;;;;;;;5065294;28;20278;-45
2023/08/08 04:42:35;;;;;;;4.10;1.52;;;;;;;;;;5066197;28;20266;-45
2023/08/08 04:45:00;;;;;;;7.07;2.00;;;;;;;;;;5059659;28;20082;-45
2023/08/08 04:47:25;;;;;;;5.53;1.53;;;;;;;;;;5065034;28;20304;-45
2023/08/08 04:49:51;;;;;;;2.67;0.80;;;;;;;;;;5052215;28;20734;-45
2023/08/08 04:52:16;;;;;;;5.28;1.15;;;;;;;;;;5049981;28;20039;-45
2023/08/08 04:54:41;;;;;;;4.07;1.20;;;;;;;;;;5064984;28;20032;-45
2023/08/08 04:57:06;;;;;;;2.83;1.17;;;;;;;;;;5068300;28;20275;-45
2023/08/08 04:59:32;;;;;;;3.83;1.33;;;;;;;;;;5063734;28;20497;-45
2023/08/08 05:01:57;;;;;;;2.47;1.40;;;;;;;;;;5070120;28;20105;-45
2023/08/08 05:04:22;;;;;;;7.53;2.30;;;;;;;;;;5061884;28;20279;-45
2023/08/08 05:06:47;;;;;;;4.20;1.48;;;;;;;;;;5061033;28;20035;-45
2023/08/08 05:09:13;;;;;;;4.45;1.65;;;;;;;;;;5063600;28;20021;-45
2023/08/08 05:11:38;;;;;;;4.20;1.40;;;;;;;;;;5066167;28;20454;-45
2023/08/08 05:14:03;;;;;;;4.03;1.30;;;;;;;;;;5063910;28;20047;-45
2023/08/08 05:16:29;;;;;;;6.60;1.33;;;;;;;;;;5064970;28;20267;-45
2023/08/08 05:18:54;;;;;;;3.73;1.87;;;;;;;;;;5065685;28;20243;-45
2023/08/08 05:21:22;;;;;;;4.97;1.53;;;;;;;;;;5054159;28;20267;-45
2023/08/08 05:23:47;;;;;;;2.88;1.10;;;;;;;;;;5051596;28;20343;-45
2023/08/08 05:26:13;;;;;;;3.60;1.23;;;;;;;;;;5061293;28;20043;-45
2023/08/08 05:28:38;;;;;;;2.38;1.20;;;;;;;;;;5061428;28;20676;-45
2023/08/08 05:31:04;;;;;;;3.10;1.27;;;;;;;;;;5053092;28;20035;-45
2023/08/08 05:33:29;;;;;;;4.75;1.38;;;;;;;;;;5050579;28;20279;-46
2023/08/08 05:35:54;;;;;;;6.17;1.53;;;;;;;;;;5059649;28;20032;-45
2023/08/08 05:38:20;;;;;;;8.30;1.27;;;;;;;;;;5049676;28;20394;-45
2023/08/08 05:40:45;;;;;;;5.97;2.50;;;;;;;;;;5056906;28;20029;-45
2023/08/08 05:43:10;;;;;;;2.93;1.13;;;;;;;;;;5057799;28;20618;-45
2023/08/08 05:45:36;;;;;;;8.95;2.00;;;;;;;;;;5059843;28;20032;-45
2023/08/08 05:48:01;;;;;;;4.40;1.40;;;;;;;;;;5061123;28;20068;-45
2023/08/08 05:50:27;;;;;;;3.73;1.43;;;;;;;;;;5059005;28;20033;-45
2023/08/08 05:52:52;;;;;;;4.97;1.45;;;;;;;;;;5054336;28;20282;-45
2023/08/08 05:55:17;;;;;;;3.20;1.60;;;;;;;;;;5046798;28;20020;-45
2023/08/08 05:57:43;;;;;;;3.25;1.17;;;;;;;;;;5049556;28;20607;-45
2023/08/08 06:00:11;;;;;;;8.13;1.67;;;;;;;;;;5059587;28;20028;-45
2023/08/08 06:02:36;;;;;;;5.10;1.63;;;;;;;;;;5058109;28;20021;-45
2023/08/08 06:05:01;;;;;;;4.60;1.50;;;;;;;;;;5054540;28;20028;-45
2023/08/08 06:07:26;;;;;;;4.63;1.30;;;;;;;;;;5055838;28;20039;-45
2023/08/08 06:09:52;;;;;;;3.27;1.20;;;;;;;;;;5061301;28;20292;-45
2023/08/08 06:12:17;;;;;;;3.08;1.02;;;;;;;;;;5061621;28;20636;-45
2023/08/08 06:14:42;;;;;;;4.30;1.63;;;;;;;;;;5063098;28;20581;-45
2023/08/08 06:17:08;;;;;;;5.20;1.77;;;;;;;;;;5061761;28;20291;-45
2023/08/08 06:19:33;;;;;;;5.27;2.07;;;;;;;;;;5062960;28;20025;-45
2023/08/08 06:21:58;;;;;;;6.78;1.80;;;;;;;;;;5060658;28;20309;-45
2023/08/08 06:24:23;;;;;;;5.68;1.92;;;;;;;;;;5058962;28;20017;-45
2023/08/08 06:26:49;;;;;;;4.30;1.40;;;;;;;;;;5060302;28;20060;-45
2023/08/08 06:29:14;;;;;;;5.68;1.30;;;;;;;;;;5053355;28;20282;-45
2023/08/08 06:31:39;;;;;;;6.18;1.25;;;;;;;;;;5054163;28;20023;-45
2023/08/08 06:34:05;;;;;;;4.47;1.20;;;;;;;;;;5043370;28;20032;-46
2023/08/08 06:36:31;;;;;;;3.53;1.38;;;;;;;;;;5046613;28;20040;-45
2023/08/08 06:38:56;;;;;;;4.93;1.70;;;;;;;;;;5064715;28;22005;-45
2023/08/08 06:41:21;;;;;;;4.77;1.50;;;;;;;;;;5059395;28;20275;-45
2023/08/08 06:43:47;;;;;;;8.00;1.55;;;;;;;;;;5056923;28;20281;-45
2023/08/08 06:46:12;;;;;;;5.50;1.37;;;;;;;;;;5060782;28;20023;-45
2023/08/08 06:48:37;;;;;;;3.93;1.50;;;;;;;;;;5060375;28;20020;-45
2023/08/08 06:51:02;;;;;;;2.10;1.03;;;;;;;;;;5060009;28;20028;-45
2023/08/08 06:53:28;;;;;;;2.03;1.20;;;;;;;;;;5056216;28;20282;-45
2023/08/08 06:55:53;;;;;;;10.07;2.30;;;;;;;;;;5051705;28;20028;-45
2023/08/08 06:58:18;;;;;;;3.07;1.17;;;;;;;;;;5067424;28;20078;-45
2023/08/08 07:00:43;;;;;;;3.87;1.30;;;;;;;;;;5060619;28;20285;-45
2023/08/08 07:03:09;;;;;;;4.97;1.43;;;;;;;;;;5063422;28;20282;-45
2023/08/08 07:05:34;;;;;;;5.97;2.38;;;;;;;;;;5052586;28;20275;-46
2023/08/08 07:07:59;;;;;;;3.90;1.47;;;;;;;;;;5061881;28;20029;-45
2023/08/08 07:10:24;;;;;;;8.23;1.60;;;;;;;;;;5061732;28;20282;-45
2023/08/08 07:12:50;;;;;;;5.23;1.73;;;;;;;;;;5043225;28;20045;-45
2023/08/08 07:15:15;;;;;;;6.70;2.28;;;;;;;;;;5058389;28;20421;-45
2023/08/08 07:17:40;;;;;;;9.90;1.67;;;;;;;;;;5066917;28;20618;-45
2023/08/08 07:20:06;;;;;;;2.70;1.20;;;;;;;;;;5068196;28;20033;-45
2023/08/08 07:22:32;;;;;;;3.97;1.48;;;;;;;;;;5070461;28;20267;-46
2023/08/08 07:24:57;;;;;;;4.30;1.20;;;;;;;;;;5064453;28;20021;-46
2023/08/08 07:27:23;;;;;;;4.47;1.17;;;;;;;;;;5058294;28;20029;-46
2023/08/08 07:29:48;;;;;;;4.87;1.90;;;;;;;;;;5065707;28;20103;-46
2023/08/08 07:32:13;;;;;;;3.17;1.63;;;;;;;;;;5070039;28;20266;-46
2023/08/08 07:34:38;;;;;;;6.57;1.70;;;;;;;;;;5067928;28;20275;-46
2023/08/08 07:37:04;;;;;;;2.30;1.10;;;;;;;;;;5061453;28;20781;-45
2023/08/08 07:39:29;;;;;;;3.53;1.20;;;;;;;;;;5052389;28;20024;-45
2023/08/08 07:41:55;;;;;;;7.22;1.60;;;;;;;;;;5052738;28;20028;-45
2023/08/08 07:44:20;;;;;;;7.47;1.20;;;;;;;;;;5065780;28;20029;-45
2023/08/08 07:46:45;;;;;;;4.77;1.53;;;;;;;;;;5061373;28;20025;-45
2023/08/08 07:49:11;;;;;;;8.57;1.80;;;;;;;;;;5062646;28;20344;-45
2023/08/08 07:51:36;;;;;;;5.50;1.70;;;;;;;;;;5068296;28;20304;-45
2023/08/08 07:54:01;;;;;;;4.13;1.15;;;;;;;;;;5066619;28;20119;-45
2023/08/08 07:56:26;;;;;;;2.88;1.30;;;;;;;;;;5067178;28;20020;-45
2023/08/08 07:58:52;;;;;;;4.87;1.30;;;;;;;;;;5062612;28;20021;-45
2023/08/08 08:01:18;;;;;;;3.80;1.40;;;;;;;;;;5068094;28;20020;-45
2023/08/08 08:03:43;;;;;;;3.60;1.40;;;;;;;;;;5063921;28;20025;-46
2023/08/08 08:06:08;;;;;;;5.40;1.37;;;;;;;;;;5056050;28;20109;-45
2023/08/08 08:08:34;;;;;;;4.88;1.40;;;;;;;;;;5060517;28;20332;-45
2023/08/08 08:10:59;;;;;;;3.43;1.30;;;;;;;;;;5057521;28;20037;-45
2023/08/08 08:13:24;;;;;;;4.90;0.90;;;;;;;;;;5057808;28;20629;-45
2023/08/08 08:15:50;;;;;;;6.35;2.38;;;;;;;;;;5055981;28;20308;-45
2023/08/08 08:18:16;;;;;;;1.90;0.90;;;;;;;;;;5061159;28;20020;-45
2023/08/08 08:20:42;;;;;;;4.35;1.50;;;;;;;;;;5051655;28;20358;-46
2023/08/08 08:23:07;;;;;;;4.28;1.02;;;;;;;;;;5052145;28;20028;-46
2023/08/08 08:25:32;;;;;;;3.70;1.13;;;;;;;;;;5060786;28;20114;-45
2023/08/08 08:27:58;;;;;;;4.73;1.43;;;;;;;;;;5062293;28;20274;-46
2023/08/08 08:30:25;;;;;;;4.13;1.03;;;;;;;;;;5051910;28;20295;-45
2023/08/08 08:32:51;;;;;;;7.97;1.30;;;;;;;;;;5049338;28;20269;-46
2023/08/08 08:35:17;;;;;;;6.28;1.90;;;;;;;;;;5050796;28;20033;-45
2023/08/08 08:37:42;;;;;;;3.88;1.27;;;;;;;;;;5059072;28;20036;-45
2023/08/08 08:40:08;;;;;;;6.30;1.00;;;;;;;;;;5065049;28;20024;-45
2023/08/08 08:42:34;;;;;;;1.90;0.85;;;;;;;;;;5061071;28;20262;-46
2023/08/08 08:45:01;;;;;;;3.95;1.10;;;;;;;;;;5064994;28;20682;-45
2023/08/08 08:47:28;;;;;;;1.33;0.70;;;;;;;;;;5060981;28;20020;-46
2023/08/08 08:49:54;;;;;;;2.95;0.73;;;;;;;;;;5056684;28;20063;-45
2023/08/08 08:52:20;;;;;;;2.75;1.15;;;;;;;;;;5066263;28;20056;-46
2023/08/08 08:54:45;;;;;;;5.82;1.25;;;;;;;;;;5058466;28;20016;-46
2023/08/08 08:57:11;;;;;;;3.53;1.07;;;;;;;;;;5060372;28;20024;-45
2023/08/08 08:59:37;;;;;;;3.92;1.00;;;;;;;;;;5065161;28;20263;-45
2023/08/08 09:02:02;;;;;;;2.47;1.30;;;;;;;;;;5066205;28;20047;-46
2023/08/08 09:04:28;;;;;;;2.67;0.93;;;;;;;;;;5064612;28;20027;-46
2023/08/08 09:06:54;;;;;;;2.40;1.10;;;;;;;;;;5060987;28;20027;-45
2023/08/08 09:09:21;;;;;;;5.07;1.50;;;;;;;;;;5061241;28;20021;-45
2023/08/08 09:11:50;;;;;;;2.78;1.00;;;;;;;;;;5057698;28;20040;-45
2023/08/08 09:14:22;;;;;;;2.95;1.42;;;;;;;;;;5061493;28;20025;-45
2023/08/08 09:16:48;;;;;;;0.77;0.60;;;;;;;;;;5067690;28;20020;-45
2023/08/08 09:19:14;;;;;;;3.40;1.20;;;;;;;;;;5064912;28;20008;-46
2023/08/08 09:21:39;;;;;;;4.07;1.00;;;;;;;;;;5069041;28;20029;-45
2023/08/08 09:24:05;;;;;;;1.50;0.95;;;;;;;;;;5058543;28;20379;-45
2023/08/08 09:26:30;;;;;;;4.47;0.90;;;;;;;;;;5064579;28;20016;-46
2023/08/08 09:28:56;;;;;;;4.05;1.08;;;;;;;;;;5054393;28;20415;-46
2023/08/08 09:31:23;;;;;;;6.40;1.35;;;;;;;;;;5065813;28;20028;-46
2023/08/08 09:33:51;;;;;;;5.20;1.33;;;;;;;;;;5060192;28;20036;-46
2023/08/08 09:36:16;;;;;;;2.75;1.10;;;;;;;;;;5061829;28;20395;-46
2023/08/08 09:38:42;;;;;;;4.85;1.08;;;;;;;;;;5066024;28;20482;-46
2023/08/08 09:41:07;;;;;;;2.28;1.02;;;;;;;;;;5060125;28;20016;-45
2023/08/08 09:43:32;;;;;;;2.10;1.20;;;;;;;;;;5065227;28;20024;-46
2023/08/08 09:45:58;;;;;;;2.63;1.00;;;;;;;;;;5059087;28;20764;-46
2023/08/08 09:48:28;;;;;;;5.45;1.10;;;;;;;;;;5058938;28;20310;-46
2023/08/08 09:50:54;;;;;;;3.50;1.00;;;;;;;;;;5065523;28;20051;-46
2023/08/08 09:53:20;;;;;;;5.80;1.08;;;;;;;;;;5063576;28;20071;-46
2023/08/08 09:55:45;;;;;;;4.75;2.00;;;;;;;;;;5039300;28;20543;-45
2023/08/08 09:58:11;;;;;;;4.80;1.25;;;;;;;;;;5063931;28;20721;-45
2023/08/08 10:00:37;;;;;;;4.25;1.30;;;;;;;;;;5063104;28;20443;-46
2023/08/08 10:03:03;;;;;;;3.78;0.93;;;;;;;;;;5059071;28;20487;-46
2023/08/08 10:05:28;;;;;;;4.57;1.35;;;;;;;;;;5055738;28;20045;-46
2023/08/08 10:07:53;;;;;;;6.60;1.33;;;;;;;;;;5053067;28;20032;-46
2023/08/08 10:10:19;;;;;;;4.45;1.13;;;;;;;;;;5054518;28;20085;-46
2023/08/08 10:12:44;;;;;;;3.58;2.15;;;;;;;;;;5059127;28;20025;-46
2023/08/08 10:15:10;;;;;;;5.30;1.50;;;;;;;;;;5055472;28;20109;-46
2023/08/08 10:17:38;;;;;;;3.67;1.30;;;;;;;;;;5060648;28;20051;-46
2023/08/08 10:20:11;;;;;;;2.95;1.20;;;;;;;;;;5060881;28;20031;-46
2023/08/08 10:22:38;;;;;;;6.65;1.02;;;;;;;;;;5069148;28;20601;-46
2023/08/08 10:25:04;;;;;;;4.88;1.30;;;;;;;;;;5061968;28;20487;-46
2023/08/08 10:27:33;;;;;;;2.90;1.27;;;;;;;;;;5058007;28;20030;-46
2023/08/08 10:30:07;;;;;;;3.50;1.08;;;;;;;;;;5056060;28;20029;-46
2023/08/08 10:32:42;;;;;;;3.13;1.27;;;;;;;;;;5060429;28;20052;-46
2023/08/08 10:35:08;;;;;;;4.38;1.40;;;;;;;;;;5059844;28;20009;-46
2023/08/08 10:37:33;;;;;;;5.70;1.40;;;;;;;;;;5057996;28;20025;-46
2023/08/08 10:40:00;;;;;;;1.23;0.67;;;;;;;;;;5057124;28;20054;-46
2023/08/08 10:42:26;;;;;;;2.08;1.13;;;;;;;;;;5054279;28;20279;-46
2023/08/08 10:44:53;;;;;;;2.88;1.15;;;;;;;;;;5059475;28;20031;-46
2023/08/08 10:47:36;;;;;;;3.10;1.50;;;;;;;;;;5067983;28;20388;-46
2023/08/08 10:50:05;;;;;;;1.85;0.90;;;;;;;;;;5068500;28;20027;-46
2023/08/08 10:52:31;;;;;;;3.28;1.30;;;;;;;;;;5062575;28;20468;-46
2023/08/08 10:54:57;;;;;;;5.53;1.80;;;;;;;;;;5063547;28;20155;-46
2023/08/08 10:57:26;;;;;;;5.47;1.57;;;;;;;;;;5065664;28;20078;-46
2023/08/08 10:59:51;;;;;;;2.97;1.30;;;;;;;;;;5058674;28;20273;-46
2023/08/08 11:02:18;;;;;;;2.35;1.50;;;;;;;;;;5052254;28;20013;-46
2023/08/08 11:04:43;;;;;;;3.72;1.35;;;;;;;;;;5061945;28;20566;-46
2023/08/08 11:07:09;;;;;;;4.70;1.50;;;;;;;;;;5063492;28;20115;-46
2023/08/08 11:09:34;;;;;;;7.55;2.08;;;;;;;;;;5060586;28;20078;-46
2023/08/08 11:12:00;;;;;;;257.77;140.15;;;;;;;;;;5059509;28;20082;-45
2023/08/08 11:14:25;;;;;;;332.35;182.60;;;;;;;;;;5059983;28;20063;-46
2023/08/08 11:16:51;;;;;;;6.23;1.80;;;;;;;;;;5065142;28;20089;-46
2023/08/08 11:19:18;;;;;;;4.85;1.50;;;;;;;;;;5066190;28;20263;-46
2023/08/08 11:21:44;;;;;;;3.83;1.52;;;;;;;;;;5063650;28;20063;-46
2023/08/08 11:24:11;;;;;;;2.97;1.23;;;;;;;;;;5061323;28;20044;-46
2023/08/08 11:26:37;;;;;;;6.35;1.88;;;;;;;;;;5067760;28;20021;-46
2023/08/08 11:29:03;;;;;;;6.70;1.40;;;;;;;;;;5061239;28;20025;-46
2023/08/08 11:31:29;;;;;;;5.35;1.67;;;;;;;;;;5065020;28;20090;-46
2023/08/08 11:33:57;;;;;;;3.80;1.17;;;;;;;;;;5059680;28;20613;-46
2023/08/08 11:36:23;;;;;;;1.92;0.90;;;;;;;;;;5065426;28;20505;-46
2023/08/08 11:38:49;;;;;;;7.32;1.90;;;;;;;;;;5067670;28;20033;-46
2023/08/08 11:41:16;;;;;;;6.22;1.50;;;;;;;;;;5070343;28;21697;-46
2023/08/08 11:43:41;;;;;;;3.92;1.80;;;;;;;;;;5051785;28;20625;-46
2023/08/08 11:46:13;;;;;;;3.22;1.25;;;;;;;;;;5061910;28;20032;-45
2023/08/08 11:48:38;;;;;;;3.30;1.05;;;;;;;;;;5060925;28;20021;-46
2023/08/08 11:51:04;;;;;;;4.82;1.10;;;;;;;;;;5064588;28;20398;-46
2023/08/08 11:53:29;;;;;;;2.72;1.38;;;;;;;;;;5059781;28;20105;-46
2023/08/08 11:55:55;;;;;;;2.23;1.00;;;;;;;;;;5068112;28;20045;-46
2023/08/08 11:58:20;;;;;;;2.10;1.00;;;;;;;;;;5061162;28;20287;-45
2023/08/08 12:00:45;;;;;;;4.65;1.55;;;;;;;;;;5067332;28;20016;-46
2023/08/08 12:03:13;;;;;;;5.32;1.58;;;;;;;;;;5068618;28;20075;-46
2023/08/08 12:05:39;;;;;;;2.53;1.25;;;;;;;;;;5065857;28;20032;-46
2023/08/08 12:08:05;;;;;;;6.45;1.08;;;;;;;;;;5058497;28;20433;-46
2023/08/08 12:10:30;;;;;;;3.20;1.55;;;;;;;;;;5051430;28;20029;-46
2023/08/08 12:12:58;;;;;;;2.05;1.17;;;;;;;;;;5066169;28;20444;-46
2023/08/08 12:15:23;;;;;;;4.13;1.65;;;;;;;;;;5063261;28;20107;-46
2023/08/08 12:17:49;;;;;;;2.20;1.13;;;;;;;;;;5063630;28;20031;-46
2023/08/08 12:20:14;;;;;;;3.13;1.50;;;;;;;;;;5067288;28;20024;-46
2023/08/08 12:22:39;;;;;;;6.90;1.60;;;;;;;;;;5065801;28;20029;-46
2023/08/08 12:25:05;;;;;;;6.03;1.40;;;;;;;;;;5063945;28;20029;-46
2023/08/08 12:27:30;;;;;;;5.18;1.50;;;;;;;;;;5062036;28;20328;-46
2023/08/08 12:29:56;;;;;;;3.00;1.25;;;;;;;;;;5066891;28;20070;-45
2023/08/08 12:32:24;;;;;;;4.88;1.35;;;;;;;;;;5060704;28;20039;-46
2023/08/08 12:34:50;;;;;;;4.85;1.20;;;;;;;;;;5050960;28;20037;-46
2023/08/08 12:37:15;;;;;;;3.75;1.55;;;;;;;;;;5061826;28;20851;-46
2023/08/08 12:39:40;;;;;;;3.55;1.55;;;;;;;;;;5066654;28;20568;-46
2023/08/08 12:42:06;;;;;;;5.97;1.85;;;;;;;;;;5052670;28;20487;-45
2023/08/08 12:44:31;;;;;;;3.20;1.45;;;;;;;;;;5065523;28;20410;-46
2023/08/08 12:46:56;;;;;;;3.08;1.65;;;;;;;;;;5061476;28;20025;-46
2023/08/08 12:49:22;;;;;;;5.23;1.43;;;;;;;;;;5065466;28;20017;-46
2023/08/08 12:51:47;;;;;;;3.00;1.40;;;;;;;;;;5059697;28;20289;-46
2023/08/08 12:54:12;;;;;;;4.33;2.13;;;;;;;;;;5055437;28;20272;-46
2023/08/08 12:56:38;;;;;;;6.30;2.03;;;;;;;;;;5069981;28;20054;-46
2023/08/08 12:59:04;;;;;;;11.55;2.85;;;;;;;;;;5064208;28;20033;-54
2023/08/08 13:01:29;;;;;;;6.57;1.17;;;;;;;;;;5065249;28;20419;-52
2023/08/08 13:03:54;;;;;;;8.15;1.75;;;;;;;;;;5066056;28;20475;-50
2023/08/08 13:06:20;;;;;;;3.38;1.50;;;;;;;;;;5062306;28;20020;-52
2023/08/08 13:08:45;;;;;;;4.57;2.13;;;;;;;;;;5064112;28;20494;-56
2023/08/08 13:11:10;;;;;;;4.90;1.50;;;;;;;;;;5058436;28;20052;-54
2023/08/08 13:13:36;;;;;;;2.88;1.48;;;;;;;;;;5056704;28;20103;-54
2023/08/08 13:16:01;;;;;;;3.37;1.60;;;;;;;;;;5066057;28;20103;-55
2023/08/08 13:18:26;;;;;;;6.20;1.65;;;;;;;;;;5066705;28;20278;-54
2023/08/08 13:20:52;;;;;;;4.25;2.03;;;;;;;;;;5064525;28;20486;-54
2023/08/08 13:23:17;;;;;;;4.57;1.48;;;;;;;;;;5052859;28;20029;-56
2023/08/08 13:25:42;;;;;;;4.25;2.50;;;;;;;;;;5063295;28;20008;-54
2023/08/08 13:28:08;;;;;;;8.13;2.75;;;;;;;;;;5063826;28;20119;-54
2023/08/08 13:30:34;;;;;;;5.15;2.30;;;;;;;;;;5054948;28;20115;-55
2023/08/08 13:32:59;;;;;;;4.47;1.83;;;;;;;;;;5055909;28;20043;-55
2023/08/08 13:35:24;;;;;;;5.10;1.63;;;;;;;;;;5061362;28;20032;-54
2023/08/08 13:37:52;;;;;;;4.20;1.83;;;;;;;;;;5061979;28;20445;-54
2023/08/08 13:40:17;;;;;;;50.03;20.08;;;;;;;;;;5059365;28;20027;-54
2023/08/08 13:42:47;;;;;;;6.55;1.80;;;;;;;;;;5043967;28;20029;-54
2023/08/08 13:45:12;;;;;;;2.85;1.40;;;;;;;;;;5050141;28;20028;-54
2023/08/08 13:47:38;;;;;;;2.85;1.48;;;;;;;;;;5063690;28;20019;-56
2023/08/08 13:50:03;;;;;;;3.93;1.63;;;;;;;;;;5065013;28;20039;-54
2023/08/08 13:52:31;;;;;;;3.45;1.52;;;;;;;;;;5062076;28;20279;-54
2023/08/08 13:54:57;;;;;;;4.35;1.60;;;;;;;;;;5065005;28;20036;-55
2023/08/08 13:57:22;;;;;;;3.17;1.50;;;;;;;;;;5063878;28;20036;-58
2023/08/08 13:59:47;;;;;;;6.83;1.53;;;;;;;;;;5064835;28;20020;-54
2023/08/08 14:02:13;;;;;;;6.28;1.50;;;;;;;;;;5058458;28;20333;-56
2023/08/08 14:04:38;;;;;;;2.67;1.40;;;;;;;;;;5063282;28;20025;-55
2023/08/08 14:07:03;;;;;;;3.17;1.10;;;;;;;;;;5066658;28;20255;-53
2023/08/08 14:09:28;;;;;;;1.90;1.17;;;;;;;;;;5065461;28;20259;-53
2023/08/08 14:11:54;;;;;;;1.70;0.73;;;;;;;;;;5034403;28;20051;-54
2023/08/08 14:14:19;;;;;;;5.87;1.50;;;;;;;;;;5054886;28;20114;-58
2023/08/08 14:16:44;;;;;;;4.00;1.33;;;;;;;;;;5055125;28;20612;-66
2023/08/08 14:19:10;;;;;;;5.10;1.20;;;;;;;;;;5062552;28;20267;-56
2023/08/08 14:21:35;;;;;;;4.05;1.00;;;;;;;;;;5052646;28;20012;-52
2023/08/08 14:24:01;;;;;;;4.77;1.20;;;;;;;;;;5064294;28;20576;-66
2023/08/08 14:26:27;;;;;;;2.92;1.40;;;;;;;;;;5052917;28;20309;-62
2023/08/08 14:28:52;;;;;;;3.05;1.15;;;;;;;;;;5050442;28;20032;-54
2023/08/08 14:31:17;;;;;;;2.97;1.00;;;;;;;;;;5051642;28;20029;-51
2023/08/08 14:33:42;;;;;;;4.60;1.10;;;;;;;;;;5060531;28;20051;-54